createdAt,value
2023-01-08T00:02:01.845Z,2.90
2023-01-08T00:04:30.151Z,3.20
2023-01-08T00:06:59.714Z,3.20
2023-01-08T00:09:28.154Z,3.10
2023-01-08T00:11:56.360Z,4.10
2023-01-08T00:14:24.568Z,2.90
2023-01-08T00:16:52.875Z,2.73
2023-01-08T00:19:21.091Z,3.90
2023-01-08T00:21:49.331Z,3.57
2023-01-08T00:24:19.093Z,3.37
2023-01-08T00:26:47.322Z,3.50
2023-01-08T00:29:16.094Z,3.67
2023-01-08T00:31:45.303Z,3.20
2023-01-08T00:34:13.498Z,3.33
2023-01-08T00:36:41.697Z,3.40
2023-01-08T00:39:09.924Z,3.50
2023-01-08T00:41:39.549Z,3.43
2023-01-08T00:44:08.001Z,2.63
2023-01-08T00:46:36.229Z,3.20
2023-01-08T00:49:04.499Z,3.43
2023-01-08T00:51:32.732Z,3.87
2023-01-08T00:54:01.052Z,3.30
2023-01-08T00:56:29.253Z,3.63
2023-01-08T00:58:58.933Z,4.50
2023-01-08T01:01:27.479Z,3.20
2023-01-08T01:03:55.919Z,3.60
2023-01-08T01:06:24.162Z,3.83
2023-01-08T01:08:52.497Z,2.80
2023-01-08T01:11:22.590Z,2.57
2023-01-08T01:13:50.941Z,2.50
2023-01-08T01:16:20.692Z,2.90
2023-01-08T01:18:48.923Z,3.57
2023-01-08T01:21:23.694Z,3.27
2023-01-08T01:23:51.943Z,2.77
2023-01-08T01:26:21.189Z,2.80
2023-01-08T01:28:50.266Z,2.80
2023-01-08T01:31:19.036Z,2.50
2023-01-08T01:33:48.627Z,2.50
2023-01-08T01:36:17.792Z,2.53
2023-01-08T01:38:46.025Z,2.60
2023-01-08T01:41:20.079Z,2.30
2023-01-08T01:43:48.287Z,1.83
2023-01-08T01:46:19.784Z,2.87
2023-01-08T01:48:51.065Z,2.77
2023-01-08T01:51:19.882Z,2.10
2023-01-08T01:53:49.347Z,1.80
2023-01-08T01:56:17.691Z,1.83
2023-01-08T01:58:45.955Z,2.20
2023-01-08T02:01:14.466Z,2.13
2023-01-08T02:03:42.854Z,1.80
2023-01-08T02:06:17.773Z,1.70
2023-01-08T02:08:51.790Z,1.87
2023-01-08T02:11:24.122Z,1.80
2023-01-08T02:13:57.085Z,1.90
2023-01-08T02:16:28.656Z,1.60
2023-01-08T02:18:59.097Z,2.03
2023-01-08T02:21:33.506Z,1.60
2023-01-08T02:24:04.935Z,1.73
2023-01-08T02:26:35.392Z,1.80
2023-01-08T02:29:06.749Z,1.53
2023-01-08T02:31:35.517Z,1.70
2023-01-08T02:34:04.063Z,1.90
2023-01-08T02:36:34.652Z,1.77
2023-01-08T02:39:21.336Z,1.63
2023-01-08T02:41:58.739Z,1.97
2023-01-08T02:44:31.406Z,1.17
2023-01-08T02:47:00.398Z,1.07
2023-01-08T02:49:31.077Z,1.40
2023-01-08T02:52:00.411Z,1.50
2023-01-08T02:54:31.052Z,1.53
2023-01-08T02:57:02.446Z,1.70
2023-01-08T02:59:33.519Z,1.20
2023-01-08T03:02:02.621Z,1.20
2023-01-08T03:04:33.299Z,2.40
2023-01-08T03:07:01.683Z,1.30
2023-01-08T03:09:29.922Z,1.30
2023-01-08T03:12:00.082Z,1.50
2023-01-08T03:14:32.040Z,1.70
2023-01-08T03:17:02.644Z,1.03
2023-01-08T03:19:32.891Z,1.33
2023-01-08T03:22:02.703Z,1.20
2023-01-08T03:24:33.500Z,1.20
2023-01-08T03:27:04.813Z,1.17
2023-01-08T03:29:35.514Z,1.23
2023-01-08T03:32:06.566Z,1.30
2023-01-08T03:34:36.795Z,1.53
2023-01-08T03:37:07.500Z,1.20
2023-01-08T03:39:39.433Z,1.23
2023-01-08T03:42:09.234Z,1.60
2023-01-08T03:44:38.924Z,1.20
2023-01-08T03:47:08.539Z,1.10
2023-01-08T03:49:37.074Z,1.00
2023-01-08T03:52:06.255Z,1.10
2023-01-08T03:54:35.944Z,0.90
2023-01-08T03:57:04.156Z,0.97
2023-01-08T03:59:32.397Z,1.00
2023-01-08T04:02:02.177Z,1.00
2023-01-08T04:04:30.448Z,0.80
2023-01-08T04:06:58.693Z,0.90
2023-01-08T04:09:26.965Z,1.03
2023-01-08T04:11:55.213Z,1.03
2023-01-08T04:14:23.433Z,1.03
2023-01-08T04:16:51.681Z,0.83
2023-01-08T04:19:21.324Z,0.93
2023-01-08T04:21:51.533Z,0.90
2023-01-08T04:24:20.125Z,1.30
2023-01-08T04:26:48.471Z,0.80
2023-01-08T04:29:16.872Z,1.20
2023-01-08T04:31:45.073Z,0.87
2023-01-08T04:34:13.447Z,1.10
2023-01-08T04:36:43.041Z,1.03
2023-01-08T04:39:11.957Z,1.20
2023-01-08T04:41:40.223Z,0.97
2023-01-08T04:44:08.472Z,1.00
2023-01-08T04:46:36.765Z,1.00
2023-01-08T04:49:05.048Z,1.17
2023-01-08T04:51:33.356Z,1.03
2023-01-08T04:54:03.014Z,0.90
2023-01-08T04:56:31.497Z,1.57
2023-01-08T04:58:59.906Z,0.97
2023-01-08T05:01:29.461Z,1.00
2023-01-08T05:03:58.562Z,1.00
2023-01-08T05:06:27.528Z,1.40
2023-01-08T05:08:55.862Z,1.27
2023-01-08T05:11:25.912Z,1.30
2023-01-08T05:13:54.529Z,1.30
2023-01-08T05:16:22.862Z,1.53
2023-01-08T05:18:51.236Z,1.70
2023-01-08T05:21:19.585Z,1.27
2023-01-08T05:23:48.599Z,1.53
2023-01-08T05:26:17.319Z,1.30
2023-01-08T05:28:47.128Z,1.43
2023-01-08T05:31:15.526Z,1.87
2023-01-08T05:33:43.891Z,1.20
2023-01-08T05:36:13.196Z,1.57
2023-01-08T05:38:41.875Z,1.43
2023-01-08T05:41:10.548Z,1.77
2023-01-08T05:43:39.129Z,1.30
2023-01-08T05:46:08.731Z,1.53
2023-01-08T05:48:37.306Z,1.93
2023-01-08T05:51:06.366Z,2.07
2023-01-08T05:53:34.666Z,1.70
2023-01-08T05:56:03.552Z,2.10
2023-01-08T05:58:32.313Z,1.60
2023-01-08T06:01:03.695Z,1.90
2023-01-08T06:03:33.340Z,1.77
2023-01-08T06:06:01.829Z,1.17
2023-01-08T06:08:30.339Z,1.50
2023-01-08T06:11:00.948Z,1.20
2023-01-08T06:13:29.278Z,1.00
2023-01-08T06:15:57.586Z,1.17
2023-01-08T06:18:25.843Z,1.10
2023-01-08T06:20:55.484Z,1.23
2023-01-08T06:23:23.789Z,1.13
2023-01-08T06:25:54.255Z,2.30
2023-01-08T06:28:22.796Z,1.23
2023-01-08T06:30:51.300Z,2.30
2023-01-08T06:33:21.172Z,1.20
2023-01-08T06:35:49.590Z,1.17
2023-01-08T06:38:19.506Z,1.37
2023-01-08T06:40:47.936Z,2.00
2023-01-08T06:43:16.289Z,1.47
2023-01-08T06:45:44.511Z,2.17
2023-01-08T06:48:12.770Z,1.70
2023-01-08T06:50:40.980Z,1.63
2023-01-08T06:53:09.248Z,2.40
2023-01-08T06:55:39.144Z,1.97
2023-01-08T06:58:07.413Z,1.23
2023-01-08T07:00:35.721Z,1.27
2023-01-08T07:03:04.105Z,1.70
2023-01-08T07:05:33.483Z,1.83
2023-01-08T07:08:01.722Z,1.47
2023-01-08T07:10:31.251Z,2.83
2023-01-08T07:13:00.795Z,1.60
2023-01-08T07:15:29.002Z,1.53
2023-01-08T07:17:57.252Z,1.73
2023-01-08T07:20:25.553Z,1.80
2023-01-08T07:22:55.785Z,1.43
2023-01-08T07:25:25.868Z,1.60
2023-01-08T07:27:54.204Z,1.57
2023-01-08T07:30:29.715Z,1.73
2023-01-08T07:33:00.562Z,2.13
2023-01-08T07:35:28.886Z,1.53
2023-01-08T07:37:57.689Z,2.87
2023-01-08T07:40:26.665Z,1.50
2023-01-08T07:43:01.248Z,1.37
2023-01-08T07:45:31.585Z,1.37
2023-01-08T07:47:59.911Z,2.10
2023-01-08T07:50:28.350Z,1.70
2023-01-08T07:52:58.446Z,1.73
2023-01-08T07:55:27.004Z,1.60
2023-01-08T07:57:55.247Z,1.03
2023-01-08T08:00:23.507Z,1.63
2023-01-08T08:02:53.249Z,1.40
2023-01-08T08:05:21.510Z,1.50
2023-01-08T08:07:49.783Z,1.20
2023-01-08T08:10:18.058Z,1.17
2023-01-08T08:12:46.483Z,2.20
2023-01-08T08:15:14.731Z,1.60
2023-01-08T08:17:46.117Z,1.33
2023-01-08T08:20:15.829Z,1.27
2023-01-08T08:22:44.147Z,0.90
2023-01-08T08:25:14.900Z,1.50
2023-01-08T08:27:43.257Z,1.03
2023-01-08T08:30:11.955Z,3.00
2023-01-08T08:32:40.185Z,1.17
2023-01-08T08:35:08.840Z,1.50
2023-01-08T08:37:38.430Z,1.23
2023-01-08T08:40:07.130Z,1.30
2023-01-08T08:42:35.380Z,1.23
2023-01-08T08:45:03.644Z,1.60
2023-01-08T08:47:31.842Z,2.50
2023-01-08T08:50:00.039Z,1.30
2023-01-08T08:52:28.254Z,1.57
2023-01-08T08:54:57.872Z,1.70
2023-01-08T08:57:26.260Z,1.57
2023-01-08T08:59:54.631Z,1.70
2023-01-08T09:02:22.972Z,1.87
2023-01-08T09:04:51.633Z,1.53
2023-01-08T09:07:19.870Z,2.40
2023-01-08T09:09:48.121Z,1.47
2023-01-08T09:12:17.817Z,2.20
2023-01-08T09:14:46.317Z,1.67
2023-01-08T09:17:14.601Z,1.73
2023-01-08T09:19:42.829Z,2.27
2023-01-08T09:22:11.126Z,1.57
2023-01-08T09:24:39.338Z,1.83
2023-01-08T09:27:09.609Z,1.77
2023-01-08T09:29:40.542Z,2.47
2023-01-08T09:32:09.644Z,1.77
2023-01-08T09:34:38.299Z,1.20
2023-01-08T09:37:07.043Z,1.87
2023-01-08T09:39:35.577Z,1.67
2023-01-08T09:42:05.304Z,1.83
2023-01-08T09:44:37.799Z,1.63
2023-01-08T09:47:07.758Z,1.83
2023-01-08T09:49:39.569Z,1.40
2023-01-08T09:52:07.890Z,1.03
2023-01-08T09:54:36.086Z,2.00
2023-01-08T09:57:04.357Z,1.37
2023-01-08T09:59:38.727Z,1.10
2023-01-08T10:02:12.463Z,2.00
2023-01-08T10:04:41.114Z,1.37
2023-01-08T10:07:13.493Z,1.33
2023-01-08T10:09:42.049Z,1.70
2023-01-08T10:12:13.106Z,1.07
2023-01-08T10:14:47.975Z,1.27
2023-01-08T10:17:23.552Z,1.10
2023-01-08T10:19:51.790Z,1.30
2023-01-08T10:22:22.124Z,1.40
2023-01-08T10:24:50.359Z,1.40
2023-01-08T10:27:19.736Z,1.67
2023-01-08T10:29:48.154Z,1.40
2023-01-08T10:32:16.974Z,1.03
2023-01-08T10:34:48.516Z,1.93
2023-01-08T10:37:24.956Z,1.00
2023-01-08T10:39:54.536Z,0.90
2023-01-08T10:42:23.408Z,1.37
2023-01-08T10:45:01.067Z,1.30
2023-01-08T10:47:30.322Z,1.00
2023-01-08T10:50:00.355Z,0.90
2023-01-08T10:52:31.577Z,0.90
2023-01-08T10:54:59.953Z,0.73
2023-01-08T10:57:29.450Z,0.87
2023-01-08T10:59:57.982Z,0.80
2023-01-08T11:02:37.976Z,1.00
2023-01-08T11:05:11.164Z,1.13
2023-01-08T11:07:40.316Z,0.77
2023-01-08T11:10:21.815Z,0.77
2023-01-08T11:12:50.154Z,0.90
2023-01-08T11:15:35.539Z,0.87
2023-01-08T11:18:07.779Z,1.10
2023-01-08T11:20:37.468Z,0.67
2023-01-08T11:23:06.442Z,1.00
2023-01-08T11:25:36.182Z,0.90
2023-01-08T11:28:06.328Z,0.80
2023-01-08T11:30:36.118Z,0.70
2023-01-08T11:33:06.425Z,1.10
2023-01-08T11:35:37.810Z,0.70
2023-01-08T11:38:08.252Z,1.40
2023-01-08T11:40:41.897Z,0.90
2023-01-08T11:43:17.648Z,0.70
2023-01-08T11:45:52.865Z,0.90
2023-01-08T11:48:27.459Z,0.70
2023-01-08T11:51:06.458Z,0.97
2023-01-08T11:53:40.193Z,0.90
2023-01-08T11:56:16.930Z,0.87
2023-01-08T11:58:51.770Z,1.00
2023-01-08T12:01:26.319Z,1.00
2023-01-08T12:04:02.426Z,0.60
2023-01-08T12:06:37.178Z,0.90
2023-01-08T12:09:12.850Z,0.93
2023-01-08T12:11:45.183Z,0.93
2023-01-08T12:14:21.022Z,0.80
2023-01-08T12:16:55.805Z,1.00
2023-01-08T12:19:29.599Z,0.60
2023-01-08T12:22:03.480Z,0.97
2023-01-08T12:24:42.511Z,1.00
2023-01-08T12:27:14.529Z,0.80
2023-01-08T12:29:54.397Z,1.13
2023-01-08T12:32:25.860Z,0.73
2023-01-08T12:34:57.468Z,0.83
2023-01-08T12:37:28.207Z,1.00
2023-01-08T12:40:04.007Z,0.67
2023-01-08T12:42:34.055Z,0.67
2023-01-08T12:45:03.699Z,0.60
2023-01-08T12:47:34.405Z,0.93
2023-01-08T12:50:22.430Z,0.90
2023-01-08T12:52:54.526Z,1.00
2023-01-08T12:55:29.570Z,0.80
2023-01-08T12:58:00.229Z,0.80
2023-01-08T13:00:30.962Z,1.40
2023-01-08T13:03:01.053Z,0.70
2023-01-08T13:05:34.068Z,0.90
2023-01-08T13:08:04.430Z,0.77
2023-01-08T13:10:38.904Z,0.83
2023-01-08T13:13:08.332Z,1.00
2023-01-08T13:15:37.334Z,0.73
2023-01-08T13:18:09.441Z,0.93
2023-01-08T13:20:37.793Z,0.90
2023-01-08T13:23:06.892Z,0.83
2023-01-08T13:25:37.262Z,1.17
2023-01-08T13:28:19.561Z,0.70
2023-01-08T13:30:49.143Z,1.20
2023-01-08T13:33:37.934Z,0.90
2023-01-08T13:36:16.317Z,1.00
2023-01-08T13:38:44.864Z,0.73
2023-01-08T13:41:27.893Z,0.80
2023-01-08T13:44:00.158Z,0.87
2023-01-08T13:46:28.827Z,1.30
2023-01-08T13:48:59.941Z,1.03
2023-01-08T13:51:35.723Z,0.90
2023-01-08T13:54:09.273Z,0.77
2023-01-08T13:56:38.842Z,1.30
2023-01-08T13:59:07.544Z,1.03
2023-01-08T14:01:35.855Z,0.80
2023-01-08T14:04:04.177Z,0.97
2023-01-08T14:06:34.891Z,1.00
2023-01-08T14:09:03.897Z,1.00
2023-01-08T14:11:34.264Z,1.00
2023-01-08T14:14:04.315Z,1.30
2023-01-08T14:16:33.470Z,1.03
2023-01-08T14:19:02.705Z,1.33
2023-01-08T14:21:30.939Z,1.00
2023-01-08T14:23:59.258Z,1.10
2023-01-08T14:26:29.565Z,0.80
2023-01-08T14:28:58.097Z,0.93
2023-01-08T14:31:28.409Z,1.37
2023-01-08T14:33:57.774Z,1.07
2023-01-08T14:36:26.089Z,1.13
2023-01-08T14:38:54.358Z,0.90
2023-01-08T14:41:25.418Z,1.00
2023-01-08T14:43:53.630Z,0.70
2023-01-08T14:46:22.796Z,0.90
2023-01-08T14:48:54.343Z,1.00
2023-01-08T14:51:24.352Z,1.67
2023-01-08T14:53:53.980Z,1.20
2023-01-08T14:56:24.502Z,2.43
2023-01-08T14:58:55.381Z,0.90
2023-01-08T15:01:25.623Z,0.93
2023-01-08T15:04:06.240Z,0.70
2023-01-08T15:06:34.894Z,1.20
2023-01-08T15:09:03.857Z,1.07
2023-01-08T15:11:32.796Z,0.80
2023-01-08T15:14:00.954Z,0.97
2023-01-08T15:16:30.462Z,1.07
2023-01-08T15:19:03.384Z,1.20
2023-01-08T15:21:31.794Z,0.73
2023-01-08T15:24:01.809Z,1.47
2023-01-08T15:26:30.349Z,1.03
2023-01-08T15:29:00.623Z,0.77
2023-01-08T15:31:30.095Z,0.73
2023-01-08T15:34:00.528Z,0.80
2023-01-08T15:36:29.083Z,1.07
2023-01-08T15:38:57.314Z,1.00
2023-01-08T15:41:43.270Z,1.10
2023-01-08T15:44:13.317Z,0.77
2023-01-08T15:46:41.724Z,1.07
2023-01-08T15:49:11.556Z,0.73
2023-01-08T15:51:43.153Z,0.87
2023-01-08T15:54:11.995Z,1.00
2023-01-08T15:56:40.355Z,0.90
2023-01-08T15:59:08.710Z,0.80
2023-01-08T16:01:37.156Z,1.10
2023-01-08T16:04:05.517Z,1.60
2023-01-08T16:06:36.217Z,1.03
2023-01-08T16:09:04.737Z,1.10
2023-01-08T16:11:33.019Z,0.90
2023-01-08T16:14:01.223Z,0.93
2023-01-08T16:16:29.628Z,0.90
2023-01-08T16:18:57.939Z,0.80
2023-01-08T16:21:26.151Z,1.17
2023-01-08T16:23:55.827Z,1.07
2023-01-08T16:26:24.093Z,1.40
2023-01-08T16:28:52.315Z,0.87
2023-01-08T16:31:20.671Z,1.03
2023-01-08T16:33:48.985Z,1.00
2023-01-08T16:36:17.175Z,1.10
2023-01-08T16:38:45.422Z,1.20
2023-01-08T16:41:15.007Z,1.57
2023-01-08T16:43:45.268Z,1.50
2023-01-08T16:46:14.771Z,1.13
2023-01-08T16:48:43.195Z,1.40
2023-01-08T16:51:11.690Z,1.00
2023-01-08T16:53:39.947Z,1.23
2023-01-08T16:56:08.510Z,1.30
2023-01-08T16:58:38.090Z,1.37
2023-01-08T17:01:09.873Z,1.50
2023-01-08T17:03:38.333Z,1.10
2023-01-08T17:06:07.102Z,1.53
2023-01-08T17:08:39.729Z,1.70
2023-01-08T17:11:08.763Z,0.93
2023-01-08T17:13:38.350Z,1.67
2023-01-08T17:16:07.338Z,1.23
2023-01-08T17:18:35.775Z,1.13
2023-01-08T17:21:04.285Z,1.33
2023-01-08T17:23:32.524Z,1.57
2023-01-08T17:26:04.055Z,1.10
2023-01-08T17:28:32.615Z,1.10
2023-01-08T17:31:04.785Z,1.07
2023-01-08T17:33:35.029Z,1.33
2023-01-08T17:36:03.529Z,1.50
2023-01-08T17:38:31.713Z,1.03
2023-01-08T17:41:02.199Z,1.20
2023-01-08T17:43:30.446Z,1.00
2023-01-08T17:45:58.762Z,1.20
2023-01-08T17:48:28.631Z,1.83
2023-01-08T17:50:56.834Z,1.50
2023-01-08T17:53:25.248Z,2.03
2023-01-08T17:55:54.324Z,0.90
2023-01-08T17:58:22.575Z,1.70
2023-01-08T18:00:50.941Z,1.50
2023-01-08T18:03:19.163Z,1.20
2023-01-08T18:05:48.732Z,1.47
2023-01-08T18:08:16.979Z,1.70
2023-01-08T18:10:45.241Z,1.20
2023-01-08T18:13:13.424Z,1.10
2023-01-08T18:15:41.653Z,1.60
2023-01-08T18:18:09.845Z,1.50
2023-01-08T18:20:40.558Z,1.53
2023-01-08T18:23:10.119Z,1.73
2023-01-08T18:25:41.712Z,2.30
2023-01-08T18:28:10.922Z,1.43
2023-01-08T18:30:39.215Z,1.50
2023-01-08T18:33:07.880Z,1.20
2023-01-08T18:35:36.157Z,1.37
2023-01-08T18:38:04.364Z,1.53
2023-01-08T18:40:34.195Z,1.37
2023-01-08T18:43:02.447Z,1.40
2023-01-08T18:45:35.220Z,2.20
2023-01-08T18:48:03.683Z,1.40
2023-01-08T18:50:31.857Z,1.10
2023-01-08T18:53:00.056Z,1.30
2023-01-08T18:55:28.334Z,1.20
2023-01-08T18:57:58.011Z,1.00
2023-01-08T19:00:26.445Z,1.43
2023-01-08T19:02:55.529Z,1.20
2023-01-08T19:05:23.794Z,1.50
2023-01-08T19:07:52.148Z,2.33
2023-01-08T19:10:21.708Z,1.40
2023-01-08T19:12:50.732Z,1.47
2023-01-08T19:15:20.935Z,2.03
2023-01-08T19:17:49.329Z,2.20
2023-01-08T19:20:17.819Z,1.93
2023-01-08T19:22:46.011Z,2.70
2023-01-08T19:25:15.003Z,1.30
2023-01-08T19:27:43.301Z,1.00
2023-01-08T19:30:12.066Z,1.63
2023-01-08T19:32:41.778Z,1.50
2023-01-08T19:35:10.352Z,1.30
2023-01-08T19:37:38.742Z,1.47
2023-01-08T19:40:07.513Z,1.60
2023-01-08T19:42:54.204Z,1.50
2023-01-08T19:45:22.508Z,1.93
2023-01-08T19:47:54.792Z,1.60
2023-01-08T19:50:23.565Z,1.40
2023-01-08T19:52:52.900Z,1.57
2023-01-08T19:55:22.184Z,1.63
2023-01-08T19:57:50.630Z,1.60
2023-01-08T20:00:22.302Z,1.67
2023-01-08T20:02:52.814Z,3.50
2023-01-08T20:05:21.142Z,1.57
2023-01-08T20:07:49.421Z,1.60
2023-01-08T20:10:17.893Z,1.40
2023-01-08T20:12:46.156Z,1.10
2023-01-08T20:15:16.604Z,1.70
2023-01-08T20:17:44.890Z,1.57
2023-01-08T20:20:14.897Z,1.13
2023-01-08T20:22:43.151Z,1.27
2023-01-08T20:25:11.607Z,1.43
2023-01-08T20:27:40.441Z,1.30
2023-01-08T20:30:10.337Z,1.10
2023-01-08T20:32:38.690Z,1.30
2023-01-08T20:35:07.354Z,0.90
2023-01-08T20:37:36.947Z,0.80
2023-01-08T20:40:05.426Z,1.07
2023-01-08T20:42:34.592Z,1.10
2023-01-08T20:45:03.194Z,1.10
2023-01-08T20:47:31.437Z,1.23
2023-01-08T20:50:01.637Z,0.90
2023-01-08T20:52:30.961Z,1.10
2023-01-08T20:55:00.581Z,1.03
2023-01-08T20:57:29.011Z,0.80
2023-01-08T20:59:57.472Z,0.80
2023-01-08T21:02:25.709Z,1.00
2023-01-08T21:04:54.974Z,0.93
2023-01-08T21:07:23.222Z,0.90
2023-01-08T21:09:51.482Z,1.57
2023-01-08T21:12:21.051Z,1.20
2023-01-08T21:14:49.375Z,1.10
2023-01-08T21:17:17.588Z,1.63
2023-01-08T21:19:45.862Z,1.23
2023-01-08T21:22:14.110Z,0.70
2023-01-08T21:24:42.377Z,0.80
2023-01-08T21:27:10.577Z,2.40
2023-01-08T21:29:40.149Z,0.80
2023-01-08T21:32:08.718Z,1.00
2023-01-08T21:34:37.323Z,0.80
2023-01-08T21:37:08.581Z,0.90
2023-01-08T21:39:36.792Z,0.80
2023-01-08T21:42:22.875Z,0.87
2023-01-08T21:45:10.367Z,2.00
2023-01-08T21:47:38.589Z,0.87
2023-01-08T21:50:07.208Z,1.40
2023-01-08T21:52:53.061Z,1.10
2023-01-08T21:55:21.300Z,1.10
2023-01-08T21:57:49.504Z,1.23
2023-01-08T22:00:19.476Z,0.80
2023-01-08T22:02:47.714Z,0.70
2023-01-08T22:05:15.911Z,0.80
2023-01-08T22:07:44.209Z,0.73
2023-01-08T22:10:13.140Z,1.10
2023-01-08T22:12:41.700Z,0.70
2023-01-08T22:15:10.779Z,0.87
2023-01-08T22:17:40.351Z,1.00
2023-01-08T22:20:09.787Z,0.73
2023-01-08T22:22:38.658Z,0.80
2023-01-08T22:25:07.355Z,0.90
2023-01-08T22:27:35.617Z,0.40
2023-01-08T22:30:03.971Z,0.80
2023-01-08T22:32:32.122Z,1.00
2023-01-08T22:35:01.780Z,0.87
2023-01-08T22:37:30.085Z,0.60
2023-01-08T22:39:58.344Z,0.60
2023-01-08T22:42:26.607Z,0.60
2023-01-08T22:44:54.834Z,0.80
2023-01-08T22:47:23.139Z,0.50
2023-01-08T22:49:51.593Z,0.60
2023-01-08T22:52:21.430Z,0.60
2023-01-08T22:54:53.105Z,0.43
2023-01-08T22:57:21.323Z,0.43
2023-01-08T22:59:49.547Z,0.43
2023-01-08T23:02:24.134Z,0.77
2023-01-08T23:04:52.725Z,0.40
2023-01-08T23:07:22.533Z,0.60
2023-01-08T23:09:50.921Z,0.40
2023-01-08T23:12:19.280Z,0.40
2023-01-08T23:14:47.461Z,0.40
2023-01-08T23:17:15.922Z,0.40
2023-01-08T23:19:44.300Z,0.40
2023-01-08T23:22:12.545Z,0.40
2023-01-08T23:24:42.193Z,0.40
2023-01-08T23:27:10.449Z,0.50
2023-01-08T23:29:38.689Z,0.40
2023-01-08T23:32:07.069Z,0.40
2023-01-08T23:34:35.314Z,0.40
2023-01-08T23:37:03.540Z,0.50
2023-01-08T23:39:31.739Z,0.60
2023-01-08T23:42:01.364Z,0.60
2023-01-08T23:44:29.544Z,0.60
2023-01-08T23:46:57.755Z,0.50
2023-01-08T23:49:26.152Z,0.60
2023-01-08T23:51:55.722Z,0.50
2023-01-08T23:54:24.235Z,0.40
2023-01-08T23:56:52.530Z,0.50
2023-01-08T23:59:22.320Z,0.40
